createdAt,value
2023-03-11T00:01:12.072Z,99389.91
2023-03-11T00:03:41.089Z,99382.75
2023-03-11T00:06:09.061Z,99387.22
2023-03-11T00:08:37.071Z,99399.31
2023-03-11T00:11:07.943Z,99394.09
2023-03-11T00:13:36.858Z,99396.22
2023-03-11T00:16:07.467Z,99406.22
2023-03-11T00:18:35.835Z,99399.00
2023-03-11T00:21:03.701Z,99404.13
2023-03-11T00:23:32.606Z,99414.75
2023-03-11T00:26:03.067Z,99415.69
2023-03-11T00:28:34.048Z,99416.50
2023-03-11T00:31:03.397Z,99419.53
2023-03-11T00:33:33.080Z,99427.06
2023-03-11T00:36:01.118Z,99435.38
2023-03-11T00:38:29.354Z,99433.50
2023-03-11T00:40:57.924Z,99442.38
2023-03-11T00:43:26.392Z,99444.56
2023-03-11T00:45:54.342Z,99459.34
2023-03-11T00:48:22.731Z,99452.78
2023-03-11T00:50:52.223Z,99454.03
2023-03-11T00:53:20.585Z,99459.88
2023-03-11T00:55:48.417Z,99453.59
2023-03-11T00:58:16.872Z,99457.25
2023-03-11T01:00:51.056Z,99454.47
2023-03-11T01:03:18.983Z,99473.03
2023-03-11T01:05:47.133Z,99479.91
2023-03-11T01:08:16.797Z,99469.88
2023-03-11T01:10:44.732Z,99487.50
2023-03-11T01:13:13.856Z,99503.88
2023-03-11T01:15:41.981Z,99491.06
2023-03-11T01:18:10.011Z,99489.56
2023-03-11T01:20:39.036Z,99487.69
2023-03-11T01:23:07.974Z,99499.81
2023-03-11T01:25:38.090Z,99507.91
2023-03-11T01:28:06.532Z,99500.22
2023-03-11T01:30:36.531Z,99499.38
2023-03-11T01:33:05.552Z,99516.97
2023-03-11T01:35:35.376Z,99504.59
2023-03-11T01:38:03.374Z,99504.69
2023-03-11T01:40:33.524Z,99506.25
2023-03-11T01:43:08.457Z,99502.91
2023-03-11T01:45:42.744Z,99508.03
2023-03-11T01:48:14.933Z,99506.47
2023-03-11T01:50:46.248Z,99509.38
2023-03-11T01:53:16.556Z,99506.69
2023-03-11T01:55:48.211Z,99500.94
2023-03-11T01:58:21.958Z,99512.63
2023-03-11T02:00:50.044Z,99507.41
2023-03-11T02:03:23.193Z,99508.84
2023-03-11T02:05:53.764Z,99509.16
2023-03-11T02:08:21.763Z,99509.47
2023-03-11T02:10:52.794Z,99517.38
2023-03-11T02:13:24.996Z,99513.97
2023-03-11T02:15:53.297Z,99530.41
2023-03-11T02:18:22.264Z,99527.69
2023-03-11T02:20:56.150Z,99522.91
2023-03-11T02:23:31.787Z,99522.25
2023-03-11T02:26:06.985Z,99528.72
2023-03-11T02:28:39.029Z,99522.84
2023-03-11T02:31:07.321Z,99521.75
2023-03-11T02:33:38.217Z,99533.25
2023-03-11T02:36:36.017Z,99528.28
2023-03-11T02:39:05.956Z,99542.97
2023-03-11T02:41:37.829Z,99538.75
2023-03-11T02:44:09.246Z,99541.47
2023-03-11T02:46:38.178Z,99545.41
2023-03-11T02:49:07.811Z,99545.31
2023-03-11T02:51:38.018Z,99551.66
2023-03-11T02:54:07.513Z,99552.47
2023-03-11T02:56:37.362Z,99555.16
2023-03-11T02:59:05.594Z,99562.56
2023-03-11T03:01:33.794Z,99568.31
2023-03-11T03:04:02.300Z,99565.16
2023-03-11T03:06:34.022Z,99570.81
2023-03-11T03:09:06.127Z,99574.13
2023-03-11T03:11:36.756Z,99571.22
2023-03-11T03:14:07.271Z,99578.97
2023-03-11T03:16:37.452Z,99581.66
2023-03-11T03:19:05.468Z,99583.06
2023-03-11T03:21:34.437Z,99581.16
2023-03-11T03:24:03.818Z,99577.22
2023-03-11T03:26:35.865Z,99579.50
2023-03-11T03:29:05.237Z,99585.41
2023-03-11T03:31:33.444Z,99588.44
2023-03-11T03:34:02.909Z,99599.97
2023-03-11T03:36:31.386Z,99606.63
2023-03-11T03:39:04.895Z,99601.16
2023-03-11T03:41:39.124Z,99603.38
2023-03-11T03:44:10.441Z,99611.88
2023-03-11T03:46:40.179Z,99610.69
2023-03-11T03:49:11.191Z,99610.47
2023-03-11T03:51:39.923Z,99618.50
2023-03-11T03:54:13.112Z,99615.88
2023-03-11T03:56:42.753Z,99623.22
2023-03-11T03:59:14.195Z,99631.22
2023-03-11T04:01:48.812Z,99628.69
2023-03-11T04:04:18.986Z,99635.47
2023-03-11T04:06:46.992Z,99630.53
2023-03-11T04:09:16.038Z,99638.09
2023-03-11T04:11:46.384Z,99627.16
2023-03-11T04:14:16.164Z,99638.13
2023-03-11T04:16:51.786Z,99629.91
2023-03-11T04:19:20.133Z,99638.81
2023-03-11T04:21:50.628Z,99629.97
2023-03-11T04:24:19.598Z,99632.25
2023-03-11T04:26:56.165Z,99643.38
2023-03-11T04:29:24.462Z,99647.22
2023-03-11T04:31:57.544Z,99652.59
2023-03-11T04:34:26.747Z,99656.91
2023-03-11T04:36:57.120Z,99649.56
2023-03-11T04:39:30.842Z,99650.81
2023-03-11T04:42:03.554Z,99649.06
2023-03-11T04:44:33.909Z,99657.28
2023-03-11T04:47:02.007Z,99661.47
2023-03-11T04:49:30.532Z,99662.13
2023-03-11T04:52:00.388Z,99663.13
2023-03-11T04:54:28.823Z,99665.28
2023-03-11T04:56:57.558Z,99665.78
2023-03-11T04:59:28.519Z,99671.78
2023-03-11T05:01:56.568Z,99675.16
2023-03-11T05:04:24.901Z,99671.72
2023-03-11T05:06:54.545Z,99682.97
2023-03-11T05:09:26.491Z,99682.84
2023-03-11T05:11:54.997Z,99679.88
2023-03-11T05:14:23.330Z,99681.81
2023-03-11T05:16:54.277Z,99692.59
2023-03-11T05:19:35.010Z,99689.81
2023-03-11T05:22:12.493Z,99691.56
2023-03-11T05:24:40.912Z,99700.13
2023-03-11T05:27:08.837Z,99700.53
2023-03-11T05:29:39.215Z,99707.88
2023-03-11T05:32:12.042Z,99710.75
2023-03-11T05:34:40.269Z,99713.56
2023-03-11T05:37:09.269Z,99719.31
2023-03-11T05:39:40.377Z,99713.84
2023-03-11T05:42:25.962Z,99715.53
2023-03-11T05:44:58.434Z,99714.88
2023-03-11T05:47:31.952Z,99718.41
2023-03-11T05:50:00.272Z,99723.31
2023-03-11T05:52:30.600Z,99725.34
2023-03-11T05:54:59.722Z,99730.38
2023-03-11T05:57:29.710Z,99725.53
2023-03-11T05:59:58.022Z,99725.91
2023-03-11T06:02:26.179Z,99724.09
2023-03-11T06:04:57.752Z,99726.66
2023-03-11T06:07:26.327Z,99735.84
2023-03-11T06:09:55.759Z,99734.63
2023-03-11T06:12:24.167Z,99739.47
2023-03-11T06:15:16.657Z,99745.69
2023-03-11T06:17:44.734Z,99746.81
2023-03-11T06:20:15.841Z,99755.19
2023-03-11T06:22:45.197Z,99753.69
2023-03-11T06:25:13.991Z,99762.16
2023-03-11T06:27:44.553Z,99759.63
2023-03-11T06:30:14.477Z,99773.50
2023-03-11T06:32:51.225Z,99765.47
2023-03-11T06:35:21.631Z,99773.13
2023-03-11T06:37:49.612Z,99769.97
2023-03-11T06:40:18.667Z,99782.25
2023-03-11T06:42:47.551Z,99785.13
2023-03-11T06:45:15.751Z,99787.34
2023-03-11T06:47:45.031Z,99790.88
2023-03-11T06:50:14.919Z,99802.78
2023-03-11T06:52:44.669Z,99799.72
2023-03-11T06:55:15.309Z,99797.50
2023-03-11T06:57:44.698Z,99800.28
2023-03-11T07:00:15.183Z,99801.13
2023-03-11T07:02:51.174Z,99815.81
2023-03-11T07:05:19.956Z,99819.06
2023-03-11T07:07:51.050Z,99817.78
2023-03-11T07:10:21.502Z,99824.06
2023-03-11T07:12:52.127Z,99830.94
2023-03-11T07:15:20.758Z,99834.31
2023-03-11T07:17:49.555Z,99833.97
2023-03-11T07:20:19.094Z,99838.41
2023-03-11T07:22:51.434Z,99848.34
2023-03-11T07:25:19.941Z,99857.66
2023-03-11T07:27:49.599Z,99850.59
2023-03-11T07:30:19.260Z,99854.38
2023-03-11T07:32:48.655Z,99855.69
2023-03-11T07:35:17.659Z,99855.53
2023-03-11T07:37:46.022Z,99871.31
2023-03-11T07:40:18.668Z,99878.97
2023-03-11T07:42:47.054Z,99883.16
2023-03-11T07:45:15.760Z,99882.09
2023-03-11T07:47:45.260Z,99897.94
2023-03-11T07:50:17.293Z,99888.72
2023-03-11T07:52:50.115Z,99886.78
2023-03-11T07:55:21.951Z,99889.09
2023-03-11T07:57:51.657Z,99900.72
2023-03-11T08:00:21.567Z,99903.13
2023-03-11T08:02:55.254Z,99905.16
2023-03-11T08:05:23.302Z,99906.16
2023-03-11T08:07:51.811Z,99918.31
2023-03-11T08:10:21.763Z,99914.19
2023-03-11T08:12:54.480Z,99934.31
2023-03-11T08:15:25.056Z,99938.75
2023-03-11T08:17:53.591Z,99938.19
2023-03-11T08:20:21.747Z,99937.56
2023-03-11T08:22:57.913Z,99936.78
2023-03-11T08:25:30.999Z,99939.31
2023-03-11T08:27:59.168Z,99952.66
2023-03-11T08:30:29.736Z,99953.56
2023-03-11T08:32:57.780Z,99950.94
2023-03-11T08:35:26.205Z,99959.53
2023-03-11T08:37:55.289Z,99965.13
2023-03-11T08:40:25.174Z,99969.31
2023-03-11T08:42:56.536Z,99972.16
2023-03-11T08:45:25.582Z,99970.56
2023-03-11T08:47:53.622Z,99971.25
2023-03-11T08:50:22.211Z,99971.00
2023-03-11T08:52:50.671Z,99976.31
2023-03-11T08:55:25.958Z,99974.84
2023-03-11T08:57:56.120Z,99977.19
2023-03-11T09:00:25.058Z,99977.66
2023-03-11T09:02:53.112Z,99978.00
2023-03-11T09:05:21.463Z,99969.38
2023-03-11T09:07:49.626Z,99962.81
2023-03-11T09:10:18.268Z,99970.38
2023-03-11T09:12:46.215Z,99969.22
2023-03-11T09:15:15.588Z,99971.09
2023-03-11T09:17:43.857Z,99978.84
2023-03-11T09:20:15.163Z,99979.59
2023-03-11T09:22:45.703Z,99970.50
2023-03-11T09:25:14.447Z,99967.34
2023-03-11T09:27:42.492Z,99965.88
2023-03-11T09:30:12.086Z,99969.66
2023-03-11T09:32:41.741Z,99974.38
2023-03-11T09:35:10.933Z,99980.59
2023-03-11T09:37:39.142Z,99982.56
2023-03-11T09:40:08.139Z,99991.91
2023-03-11T09:42:43.914Z,99999.56
2023-03-11T09:45:17.869Z,99994.81
2023-03-11T09:48:01.154Z,100000.66
2023-03-11T09:50:32.271Z,99994.69
2023-03-11T09:53:11.753Z,100009.53
2023-03-11T09:55:44.216Z,100005.63
2023-03-11T09:58:20.692Z,100002.75
2023-03-11T10:00:52.016Z,100000.00
2023-03-11T10:03:39.264Z,99998.88
2023-03-11T10:06:15.732Z,99995.75
2023-03-11T10:08:47.695Z,99994.13
2023-03-11T10:11:32.771Z,99988.59
2023-03-11T10:14:14.070Z,99987.84
2023-03-11T10:16:52.063Z,100002.47
2023-03-11T10:19:43.085Z,99999.19
2023-03-11T10:22:18.258Z,100002.75
2023-03-11T10:25:05.030Z,100000.03
2023-03-11T10:27:41.875Z,100001.88
2023-03-11T10:30:20.531Z,99998.78
2023-03-11T10:32:56.140Z,100002.97
2023-03-11T10:35:33.531Z,100004.06
2023-03-11T10:38:06.981Z,100007.72
2023-03-11T10:40:37.895Z,100008.44
2023-03-11T10:43:13.556Z,99997.84
2023-03-11T10:45:44.823Z,100001.50
2023-03-11T10:48:16.074Z,100009.22
2023-03-11T10:50:50.958Z,100000.44
2023-03-11T10:53:21.307Z,100003.44
2023-03-11T10:55:52.550Z,100006.75
2023-03-11T10:58:23.629Z,100008.16
2023-03-11T11:01:08.583Z,100006.28
2023-03-11T11:03:37.537Z,100002.69
2023-03-11T11:06:19.433Z,100015.41
2023-03-11T11:08:47.817Z,100006.03
2023-03-11T11:11:22.665Z,100008.91
2023-03-11T11:13:58.776Z,100017.03
2023-03-11T11:16:28.482Z,100013.47
2023-03-11T11:19:03.252Z,100015.38
2023-03-11T11:21:36.130Z,100009.75
2023-03-11T11:24:15.906Z,100016.22
2023-03-11T11:27:04.342Z,100005.47
2023-03-11T11:29:36.098Z,100014.41
2023-03-11T11:32:26.501Z,100007.75
2023-03-11T11:34:59.653Z,100013.78
2023-03-11T11:37:31.862Z,100008.41
2023-03-11T11:40:12.247Z,100017.72
2023-03-11T11:42:44.637Z,100017.84
2023-03-11T11:45:17.818Z,100015.47
2023-03-11T11:47:52.300Z,100017.13
2023-03-11T11:50:28.960Z,100024.50
2023-03-11T11:53:03.883Z,100022.81
2023-03-11T11:55:34.608Z,100030.06
2023-03-11T11:58:05.534Z,100024.13
2023-03-11T12:00:45.257Z,100026.56
2023-03-11T12:03:35.785Z,100028.22
2023-03-11T12:06:13.395Z,100027.72
2023-03-11T12:08:54.036Z,100023.06
2023-03-11T12:11:27.985Z,100023.19
2023-03-11T12:14:08.600Z,100025.47
2023-03-11T12:16:45.137Z,100022.47
2023-03-11T12:19:27.973Z,100013.75
2023-03-11T12:22:43.014Z,100022.94
2023-03-11T12:25:25.542Z,100015.66
2023-03-11T12:28:09.314Z,100025.53
2023-03-11T12:30:45.307Z,100010.31
2023-03-11T12:33:18.598Z,100006.50
2023-03-11T12:35:54.074Z,100010.91
2023-03-11T12:38:31.190Z,100009.00
2023-03-11T12:41:09.466Z,100014.84
2023-03-11T12:44:24.951Z,100014.16
2023-03-11T12:47:06.300Z,100012.53
2023-03-11T12:49:37.981Z,100017.22
2023-03-11T12:52:21.800Z,100023.06
2023-03-11T12:55:11.168Z,100011.91
2023-03-11T12:57:55.340Z,100010.72
2023-03-11T13:00:32.743Z,100017.59
2023-03-11T13:03:17.390Z,100012.72
2023-03-11T13:06:06.487Z,100017.47
2023-03-11T13:08:45.107Z,100014.34
2023-03-11T13:11:45.713Z,100022.69
2023-03-11T13:14:30.066Z,100021.16
2023-03-11T13:17:18.601Z,100019.69
2023-03-11T13:19:52.574Z,100030.16
2023-03-11T13:23:00.787Z,100027.59
2023-03-11T13:25:33.010Z,100032.63
2023-03-11T13:28:25.980Z,100035.88
2023-03-11T13:31:11.564Z,100045.75
2023-03-11T13:33:51.080Z,100047.31
2023-03-11T13:36:40.846Z,100055.34
2023-03-11T13:39:40.509Z,100054.66
2023-03-11T13:42:19.123Z,100047.84
2023-03-11T13:44:49.022Z,100055.50
2023-03-11T13:47:20.051Z,100069.16
2023-03-11T13:49:53.821Z,100066.22
2023-03-11T13:52:27.669Z,100072.19
2023-03-11T13:55:02.640Z,100070.22
2023-03-11T13:57:34.069Z,100069.03
2023-03-11T14:00:17.128Z,100074.38
2023-03-11T14:02:54.304Z,100069.53
2023-03-11T14:05:26.491Z,100077.91
2023-03-11T14:07:55.203Z,100072.22
2023-03-11T14:10:26.906Z,100075.50
2023-03-11T14:13:09.451Z,100076.56
2023-03-11T14:15:47.366Z,100077.44
2023-03-11T14:18:38.799Z,100076.66
2023-03-11T14:21:14.995Z,100076.88
2023-03-11T14:23:45.314Z,100082.00
2023-03-11T14:26:16.277Z,100082.94
2023-03-11T14:28:49.671Z,100075.94
2023-03-11T14:31:32.367Z,100072.13
2023-03-11T14:34:07.119Z,100069.41
2023-03-11T14:36:43.354Z,100066.13
2023-03-11T14:39:27.967Z,100068.19
2023-03-11T14:42:00.611Z,100068.19
2023-03-11T14:44:30.467Z,100068.44
2023-03-11T14:47:07.973Z,100066.69
2023-03-11T14:49:41.740Z,100064.78
2023-03-11T14:52:17.954Z,100053.06
2023-03-11T14:54:49.467Z,100051.16
2023-03-11T14:57:26.306Z,100051.06
2023-03-11T14:59:56.685Z,100054.03
2023-03-11T15:02:46.295Z,100055.97
2023-03-11T15:05:21.669Z,100060.59
2023-03-11T15:07:53.027Z,100061.97
2023-03-11T15:10:21.406Z,100063.50
2023-03-11T15:12:49.871Z,100056.03
2023-03-11T15:15:27.313Z,100067.03
2023-03-11T15:17:56.658Z,100071.25
2023-03-11T15:20:31.042Z,100079.13
2023-03-11T15:23:01.760Z,100069.75
2023-03-11T15:25:33.461Z,100073.59
2023-03-11T15:28:25.440Z,100072.31
2023-03-11T15:31:18.660Z,100068.91
2023-03-11T15:33:51.596Z,100073.19
2023-03-11T15:36:35.974Z,100073.81
2023-03-11T15:39:17.461Z,100075.44
2023-03-11T15:41:48.318Z,100072.72
2023-03-11T15:44:25.554Z,100081.06
2023-03-11T15:46:55.722Z,100090.50
2023-03-11T15:49:25.241Z,100084.13
2023-03-11T15:51:54.548Z,100088.22
2023-03-11T15:54:23.713Z,100093.00
2023-03-11T15:56:51.905Z,100089.44
2023-03-11T15:59:19.829Z,100105.50
2023-03-11T16:01:49.534Z,100104.72
2023-03-11T16:04:19.190Z,100108.09
2023-03-11T16:06:59.500Z,100106.94
2023-03-11T16:09:36.402Z,100108.41
2023-03-11T16:12:16.255Z,100110.38
2023-03-11T16:14:44.271Z,100114.78
2023-03-11T16:17:14.841Z,100119.31
2023-03-11T16:19:43.084Z,100128.50
2023-03-11T16:22:19.792Z,100121.59
2023-03-11T16:24:55.149Z,100119.31
2023-03-11T16:27:23.627Z,100118.78
2023-03-11T16:29:51.445Z,100116.78
2023-03-11T16:32:20.018Z,100121.41
2023-03-11T16:34:48.219Z,100121.28
2023-03-11T16:37:21.467Z,100125.03
2023-03-11T16:39:50.778Z,100135.38
2023-03-11T16:42:23.889Z,100133.06
2023-03-11T16:44:52.196Z,100139.31
2023-03-11T16:47:20.298Z,100137.97
2023-03-11T16:49:53.501Z,100131.97
2023-03-11T16:52:23.032Z,100135.03
2023-03-11T16:54:52.715Z,100139.94
2023-03-11T16:57:20.644Z,100136.16
2023-03-11T16:59:49.317Z,100139.47
2023-03-11T17:02:18.453Z,100139.22
2023-03-11T17:04:49.510Z,100133.44
2023-03-11T17:07:20.218Z,100142.41
2023-03-11T17:09:50.870Z,100141.97
2023-03-11T17:12:23.111Z,100149.47
2023-03-11T17:14:51.356Z,100146.59
2023-03-11T17:17:23.216Z,100147.84
2023-03-11T17:19:51.152Z,100155.13
2023-03-11T17:22:20.018Z,100161.66
2023-03-11T17:24:49.936Z,100168.19
2023-03-11T17:27:20.759Z,100172.19
2023-03-11T17:29:49.544Z,100166.72
2023-03-11T17:32:17.840Z,100176.78
2023-03-11T17:34:46.356Z,100177.34
2023-03-11T17:37:14.267Z,100178.72
2023-03-11T17:39:47.285Z,100178.34
2023-03-11T17:42:25.949Z,100177.97
2023-03-11T17:44:58.554Z,100191.38
2023-03-11T17:47:27.107Z,100188.31
2023-03-11T17:49:55.424Z,100195.63
2023-03-11T17:52:24.637Z,100201.31
2023-03-11T17:54:53.512Z,100193.75
2023-03-11T17:57:23.079Z,100195.78
2023-03-11T17:59:52.677Z,100198.81
2023-03-11T18:02:22.965Z,100203.75
2023-03-11T18:04:53.985Z,100208.28
2023-03-11T18:07:23.917Z,100203.41
2023-03-11T18:09:54.914Z,100198.53
2023-03-11T18:12:25.296Z,100208.38
2023-03-11T18:14:53.763Z,100202.69
2023-03-11T18:17:24.281Z,100205.56
2023-03-11T18:19:52.156Z,100212.03
2023-03-11T18:22:21.320Z,100210.50
2023-03-11T18:24:51.704Z,100219.50
2023-03-11T18:27:19.737Z,100226.91
2023-03-11T18:29:49.203Z,100228.22
2023-03-11T18:32:17.671Z,100240.63
2023-03-11T18:34:45.933Z,100230.53
2023-03-11T18:37:14.767Z,100236.78
2023-03-11T18:39:43.706Z,100234.50
2023-03-11T18:42:12.021Z,100232.28
2023-03-11T18:44:40.103Z,100236.91
2023-03-11T18:47:10.258Z,100230.09
2023-03-11T18:49:40.888Z,100237.25
2023-03-11T18:52:09.085Z,100242.75
2023-03-11T18:54:38.716Z,100237.78
2023-03-11T18:57:09.272Z,100236.50
2023-03-11T18:59:39.884Z,100242.75
2023-03-11T19:02:10.807Z,100240.41
2023-03-11T19:04:38.669Z,100236.13
2023-03-11T19:07:07.157Z,100236.38
2023-03-11T19:09:35.103Z,100241.13
2023-03-11T19:12:05.142Z,100239.00
2023-03-11T19:14:36.490Z,100235.16
2023-03-11T19:17:08.010Z,100238.28
2023-03-11T19:19:37.768Z,100246.38
2023-03-11T19:22:05.781Z,100244.09
2023-03-11T19:24:33.827Z,100236.44
2023-03-11T19:27:01.814Z,100244.63
2023-03-11T19:29:32.076Z,100244.91
2023-03-11T19:32:02.977Z,100239.94
2023-03-11T19:34:31.717Z,100239.31
2023-03-11T19:37:01.373Z,100250.69
2023-03-11T19:39:29.616Z,100249.16
2023-03-11T19:41:58.892Z,100257.25
2023-03-11T19:44:27.400Z,100252.41
2023-03-11T19:46:55.317Z,100259.88
2023-03-11T19:49:25.783Z,100256.34
2023-03-11T19:51:55.974Z,100253.81
2023-03-11T19:54:27.983Z,100251.44
2023-03-11T19:56:55.890Z,100258.66
2023-03-11T19:59:23.821Z,100261.41
2023-03-11T20:01:51.833Z,100265.03
2023-03-11T20:04:22.159Z,100267.72
2023-03-11T20:06:50.255Z,100272.13
2023-03-11T20:09:18.474Z,100262.59
2023-03-11T20:11:48.120Z,100276.47
2023-03-11T20:14:16.308Z,100277.41
2023-03-11T20:16:45.478Z,100283.63
2023-03-11T20:19:14.019Z,100283.78
2023-03-11T20:21:46.021Z,100282.97
2023-03-11T20:24:14.511Z,100278.00
2023-03-11T20:26:42.817Z,100288.47
2023-03-11T20:29:12.748Z,100291.28
2023-03-11T20:31:41.316Z,100295.75
2023-03-11T20:34:11.225Z,100293.28
2023-03-11T20:36:39.693Z,100293.41
2023-03-11T20:39:10.669Z,100290.03
2023-03-11T20:41:42.221Z,100295.22
2023-03-11T20:44:14.600Z,100297.81
2023-03-11T20:46:43.111Z,100303.84
2023-03-11T20:49:11.618Z,100298.81
2023-03-11T20:51:41.767Z,100298.09
2023-03-11T20:54:11.929Z,100300.59
2023-03-11T20:56:43.848Z,100304.97
2023-03-11T20:59:14.661Z,100302.50
2023-03-11T21:01:44.956Z,100301.00
2023-03-11T21:04:15.919Z,100297.50
2023-03-11T21:06:49.769Z,100295.97
2023-03-11T21:09:19.274Z,100304.72
2023-03-11T21:11:48.800Z,100304.78
2023-03-11T21:14:19.505Z,100304.78
2023-03-11T21:16:49.169Z,100308.38
2023-03-11T21:19:17.488Z,100310.22
2023-03-11T21:21:46.993Z,100302.50
2023-03-11T21:24:15.655Z,100313.72
2023-03-11T21:26:44.508Z,100304.47
2023-03-11T21:29:14.056Z,100304.47
2023-03-11T21:31:43.966Z,100307.97
2023-03-11T21:34:14.952Z,100305.81
2023-03-11T21:36:45.226Z,100313.72
2023-03-11T21:39:14.942Z,100316.25
2023-03-11T21:41:43.009Z,100317.88
2023-03-11T21:44:11.408Z,100317.97
2023-03-11T21:46:39.692Z,100314.41
2023-03-11T21:49:12.776Z,100311.00
2023-03-11T21:51:43.957Z,100309.56
2023-03-11T21:54:12.696Z,100317.41
2023-03-11T21:56:40.786Z,100310.41
2023-03-11T21:59:11.898Z,100317.97
2023-03-11T22:01:40.592Z,100321.69
2023-03-11T22:04:18.095Z,100324.25
2023-03-11T22:06:48.852Z,100322.53
2023-03-11T22:09:17.015Z,100325.84
2023-03-11T22:11:45.343Z,100316.75
2023-03-11T22:14:13.406Z,100317.69
2023-03-11T22:16:42.115Z,100315.25
2023-03-11T22:19:11.241Z,100327.34
2023-03-11T22:21:42.349Z,100318.75
2023-03-11T22:24:10.978Z,100329.13
2023-03-11T22:26:41.486Z,100319.56
2023-03-11T22:29:12.992Z,100321.63
2023-03-11T22:31:41.501Z,100319.84
2023-03-11T22:34:09.425Z,100320.88
2023-03-11T22:36:41.837Z,100320.81
2023-03-11T22:39:09.732Z,100318.94
2023-03-11T22:41:37.726Z,100322.31
2023-03-11T22:44:06.276Z,100329.13
2023-03-11T22:46:35.127Z,100329.94
2023-03-11T22:49:04.525Z,100324.75
2023-03-11T22:51:32.509Z,100335.25
2023-03-11T22:54:01.850Z,100329.16
2023-03-11T22:56:30.541Z,100332.72
2023-03-11T22:58:59.767Z,100331.03
2023-03-11T23:01:29.578Z,100333.69
2023-03-11T23:03:58.794Z,100332.88
2023-03-11T23:06:30.709Z,100338.03
2023-03-11T23:08:59.081Z,100333.63
2023-03-11T23:11:30.990Z,100330.78
2023-03-11T23:14:00.398Z,100331.47
2023-03-11T23:16:28.972Z,100338.09
2023-03-11T23:18:57.184Z,100331.03
2023-03-11T23:21:27.275Z,100326.81
2023-03-11T23:23:57.345Z,100330.31
2023-03-11T23:26:25.496Z,100336.47
2023-03-11T23:28:55.410Z,100322.72
2023-03-11T23:31:26.712Z,100334.78
2023-03-11T23:33:55.439Z,100329.59
2023-03-11T23:36:26.901Z,100328.78
2023-03-11T23:38:56.296Z,100336.84
2023-03-11T23:41:24.580Z,100344.72
2023-03-11T23:43:54.493Z,100343.09
2023-03-11T23:46:25.244Z,100343.19
2023-03-11T23:48:53.330Z,100338.88
2023-03-11T23:51:22.583Z,100342.31
2023-03-11T23:53:50.939Z,100340.81
2023-03-11T23:56:19.995Z,100344.38
2023-03-11T23:58:47.875Z,100341.88
